sensor_id;sensor_type;location;lat;lon;timestamp;pressure;altitude;pressure_sealevel;temperature;humidity
49611;BME280;35515;48.766;9.176;2022-10-31T00:01:00;98824.25;;;13.16;95.33
49611;BME280;35515;48.766;9.176;2022-10-31T00:03:27;98828.00;;;13.21;95.28
49611;BME280;35515;48.766;9.176;2022-10-31T00:05:53;98830.13;;;13.19;95.37
49611;BME280;35515;48.766;9.176;2022-10-31T00:08:21;98828.84;;;13.15;95.46
49611;BME280;35515;48.766;9.176;2022-10-31T00:10:48;98832.41;;;13.23;94.73
49611;BME280;35515;48.766;9.176;2022-10-31T00:13:14;98825.72;;;13.18;95.22
49611;BME280;35515;48.766;9.176;2022-10-31T00:15:41;98827.56;;;13.25;94.54
49611;BME280;35515;48.766;9.176;2022-10-31T00:18:09;98822.94;;;13.32;93.82
49611;BME280;35515;48.766;9.176;2022-10-31T00:20:37;98827.59;;;13.11;95.14
49611;BME280;35515;48.766;9.176;2022-10-31T00:23:05;98822.41;;;13.03;95.72
49611;BME280;35515;48.766;9.176;2022-10-31T00:25:35;98823.44;;;13.02;95.72
49611;BME280;35515;48.766;9.176;2022-10-31T00:28:02;98825.13;;;12.96;96.39
49611;BME280;35515;48.766;9.176;2022-10-31T00:30:30;98830.78;;;12.95;96.51
49611;BME280;35515;48.766;9.176;2022-10-31T00:32:57;98833.50;;;13.01;95.85
49611;BME280;35515;48.766;9.176;2022-10-31T00:35:23;98825.56;;;13.00;95.42
49611;BME280;35515;48.766;9.176;2022-10-31T00:37:51;98819.06;;;13.01;95.53
49611;BME280;35515;48.766;9.176;2022-10-31T00:40:18;98825.09;;;13.10;94.39
49611;BME280;35515;48.766;9.176;2022-10-31T00:42:46;98830.78;;;13.01;94.93
49611;BME280;35515;48.766;9.176;2022-10-31T00:45:13;98828.09;;;12.88;95.79
49611;BME280;35515;48.766;9.176;2022-10-31T00:47:39;98831.03;;;12.86;96.38
49611;BME280;35515;48.766;9.176;2022-10-31T00:50:07;98827.47;;;12.79;96.19
49611;BME280;35515;48.766;9.176;2022-10-31T00:52:34;98828.09;;;12.88;95.81
49611;BME280;35515;48.766;9.176;2022-10-31T00:55:00;98828.28;;;12.93;95.43
49611;BME280;35515;48.766;9.176;2022-10-31T00:57:27;98828.50;;;12.92;95.13
49611;BME280;35515;48.766;9.176;2022-10-31T00:59:55;98826.00;;;12.83;95.29
49611;BME280;35515;48.766;9.176;2022-10-31T01:02:21;98827.25;;;12.74;96.11
49611;BME280;35515;48.766;9.176;2022-10-31T01:04:48;98821.81;;;12.81;94.97
49611;BME280;35515;48.766;9.176;2022-10-31T01:07:14;98819.50;;;12.91;94.88
49611;BME280;35515;48.766;9.176;2022-10-31T01:09:41;98826.44;;;12.80;95.23
49611;BME280;35515;48.766;9.176;2022-10-31T01:12:07;98829.38;;;12.72;95.77
49611;BME280;35515;48.766;9.176;2022-10-31T01:14:34;98826.84;;;12.77;95.60
49611;BME280;35515;48.766;9.176;2022-10-31T01:17:01;98814.31;;;12.69;95.95
49611;BME280;35515;48.766;9.176;2022-10-31T01:19:28;98813.88;;;12.66;96.63
49611;BME280;35515;48.766;9.176;2022-10-31T01:21:55;98818.06;;;12.75;95.20
49611;BME280;35515;48.766;9.176;2022-10-31T01:24:21;98822.69;;;12.61;96.20
49611;BME280;35515;48.766;9.176;2022-10-31T01:26:48;98823.50;;;12.62;96.34
49611;BME280;35515;48.766;9.176;2022-10-31T01:29:14;98823.50;;;12.68;96.03
49611;BME280;35515;48.766;9.176;2022-10-31T01:31:41;98824.16;;;12.64;96.31
49611;BME280;35515;48.766;9.176;2022-10-31T01:34:12;98812.66;;;12.62;96.68
49611;BME280;35515;48.766;9.176;2022-10-31T01:36:40;98812.22;;;12.71;95.96
49611;BME280;35515;48.766;9.176;2022-10-31T01:39:09;98807.63;;;12.65;96.47
49611;BME280;35515;48.766;9.176;2022-10-31T01:41:38;98823.94;;;12.65;96.72
49611;BME280;35515;48.766;9.176;2022-10-31T01:47:07;98816.81;;;12.64;96.59
49611;BME280;35515;48.766;9.176;2022-10-31T01:49:42;98816.38;;;12.74;95.65
49611;BME280;35515;48.766;9.176;2022-10-31T01:52:14;98808.06;;;12.69;95.88
49611;BME280;35515;48.766;9.176;2022-10-31T01:54:47;98807.84;;;12.64;95.94
49611;BME280;35515;48.766;9.176;2022-10-31T01:57:21;98808.06;;;12.69;95.75
49611;BME280;35515;48.766;9.176;2022-10-31T01:59:49;98804.50;;;12.62;96.26
49611;BME280;35515;48.766;9.176;2022-10-31T02:02:18;98801.75;;;12.68;95.85
49611;BME280;35515;48.766;9.176;2022-10-31T02:04:47;98805.94;;;12.64;95.62
49611;BME280;35515;48.766;9.176;2022-10-31T02:07:16;98804.91;;;12.59;95.47
49611;BME280;35515;48.766;9.176;2022-10-31T02:09:47;98806.59;;;12.66;95.03
49611;BME280;35515;48.766;9.176;2022-10-31T02:12:16;98807.41;;;12.67;94.29
49611;BME280;35515;48.766;9.176;2022-10-31T02:14:44;98810.56;;;12.64;94.50
49611;BME280;35515;48.766;9.176;2022-10-31T02:17:10;98809.31;;;12.60;95.30
49611;BME280;35515;48.766;9.176;2022-10-31T02:19:41;98804.50;;;12.62;94.82
49611;BME280;35515;48.766;9.176;2022-10-31T02:22:17;98798.44;;;12.73;93.65
49611;BME280;35515;48.766;9.176;2022-10-31T02:24:58;98808.66;;;12.64;93.72
49611;BME280;35515;48.766;9.176;2022-10-31T02:30:30;98805.75;;;12.59;93.96
49611;BME280;35515;48.766;9.176;2022-10-31T02:33:14;98812.22;;;12.45;94.67
49611;BME280;35515;48.766;9.176;2022-10-31T02:35:50;98799.50;;;12.45;94.97
49611;BME280;35515;48.766;9.176;2022-10-31T02:38:26;98804.28;;;12.43;95.12
49611;BME280;35515;48.766;9.176;2022-10-31T02:41:01;98810.38;;;12.45;95.53
49611;BME280;35515;48.766;9.176;2022-10-31T02:43:36;98812.22;;;12.38;95.58
49611;BME280;35515;48.766;9.176;2022-10-31T02:46:10;98818.31;;;12.40;94.95
49611;BME280;35515;48.766;9.176;2022-10-31T02:48:39;98802.66;;;12.49;94.98
49611;BME280;35515;48.766;9.176;2022-10-31T02:51:08;98803.03;;;12.52;93.99
49611;BME280;35515;48.766;9.176;2022-10-31T02:53:36;98801.56;;;12.30;95.09
49611;BME280;35515;48.766;9.176;2022-10-31T02:56:06;98806.41;;;12.28;95.67
49611;BME280;35515;48.766;9.176;2022-10-31T02:58:38;98804.72;;;12.27;96.32
49611;BME280;35515;48.766;9.176;2022-10-31T03:01:19;98803.69;;;12.34;96.07
49611;BME280;35515;48.766;9.176;2022-10-31T03:03:58;98804.28;;;12.43;94.74
49611;BME280;35515;48.766;9.176;2022-10-31T03:06:32;98799.72;;;12.37;94.87
49611;BME280;35515;48.766;9.176;2022-10-31T03:09:03;98795.94;;;12.38;94.95
49611;BME280;35515;48.766;9.176;2022-10-31T03:11:45;98798.84;;;12.36;95.05
49611;BME280;35515;48.766;9.176;2022-10-31T03:14:20;98796.78;;;12.25;95.52
49611;BME280;35515;48.766;9.176;2022-10-31T03:16:50;98805.16;;;12.24;95.63
49611;BME280;35515;48.766;9.176;2022-10-31T03:19:23;98802.59;;;12.09;96.58
49611;BME280;35515;48.766;9.176;2022-10-31T03:21:54;98795.53;;;12.14;96.64
49611;BME280;35515;48.766;9.176;2022-10-31T03:24:25;98798.84;;;12.03;97.33
49611;BME280;35515;48.766;9.176;2022-10-31T03:26:53;98797.59;;;12.12;96.93
49611;BME280;35515;48.766;9.176;2022-10-31T03:29:25;98795.53;;;12.14;96.45
49611;BME280;35515;48.766;9.176;2022-10-31T03:31:54;98796.34;;;12.08;96.75
49611;BME280;35515;48.766;9.176;2022-10-31T03:34:23;98798.44;;;12.06;96.57
49611;BME280;35515;48.766;9.176;2022-10-31T03:36:52;98799.72;;;12.10;96.89
49611;BME280;35515;48.766;9.176;2022-10-31T03:39:21;98801.78;;;12.08;96.41
49611;BME280;35515;48.766;9.176;2022-10-31T03:41:53;98800.53;;;12.04;96.75
49611;BME280;35515;48.766;9.176;2022-10-31T03:44:22;98800.53;;;12.04;96.42
49611;BME280;35515;48.766;9.176;2022-10-31T03:46:50;98802.59;;;12.02;96.48
49611;BME280;35515;48.766;9.176;2022-10-31T03:49:17;98801.16;;;12.06;96.27
49611;BME280;35515;48.766;9.176;2022-10-31T03:51:47;98800.97;;;12.14;95.68
49611;BME280;35515;48.766;9.176;2022-10-31T03:54:22;98808.03;;;12.15;95.04
49611;BME280;35515;48.766;9.176;2022-10-31T03:56:53;98804.72;;;12.13;94.93
49611;BME280;35515;48.766;9.176;2022-10-31T03:59:25;98794.69;;;12.07;94.99
49611;BME280;35515;48.766;9.176;2022-10-31T04:01:56;98802.22;;;12.05;95.66
49611;BME280;35515;48.766;9.176;2022-10-31T04:04:24;98795.09;;;12.04;95.89
49611;BME280;35515;48.766;9.176;2022-10-31T04:06:53;98798.84;;;11.96;95.94
49611;BME280;35515;48.766;9.176;2022-10-31T04:09:21;98806.34;;;11.87;97.42
49611;BME280;35515;48.766;9.176;2022-10-31T04:11:50;98802.16;;;11.92;96.83
49611;BME280;35515;48.766;9.176;2022-10-31T04:14:17;98800.53;;;12.04;96.28
49611;BME280;35515;48.766;9.176;2022-10-31T04:16:44;98802.59;;;12.02;96.21
49611;BME280;35515;48.766;9.176;2022-10-31T04:19:12;98800.53;;;12.04;96.46
49611;BME280;35515;48.766;9.176;2022-10-31T04:21:39;98793.41;;;12.03;96.07
49611;BME280;35515;48.766;9.176;2022-10-31T04:24:09;98797.38;;;12.07;96.02
49611;BME280;35515;48.766;9.176;2022-10-31T04:26:36;98786.94;;;11.97;96.64
49611;BME280;35515;48.766;9.176;2022-10-31T04:29:03;98790.03;;;11.87;97.73
49611;BME280;35515;48.766;9.176;2022-10-31T04:31:29;98792.38;;;12.04;96.64
49611;BME280;35515;48.766;9.176;2022-10-31T04:33:56;98785.91;;;12.18;95.96
49611;BME280;35515;48.766;9.176;2022-10-31T04:36:22;98781.94;;;12.08;96.29
49611;BME280;35515;48.766;9.176;2022-10-31T04:38:49;98788.81;;;11.97;96.55
49611;BME280;35515;48.766;9.176;2022-10-31T04:41:17;98785.47;;;11.95;96.88
49611;BME280;35515;48.766;9.176;2022-10-31T04:43:43;98784.66;;;12.08;96.12
49611;BME280;35515;48.766;9.176;2022-10-31T04:46:09;98778.75;;;11.91;97.11
49611;BME280;35515;48.766;9.176;2022-10-31T04:48:36;98775.41;;;11.88;97.35
49611;BME280;35515;48.766;9.176;2022-10-31T04:51:03;98768.34;;;11.94;96.81
49611;BME280;35515;48.766;9.176;2022-10-31T04:53:29;98765.41;;;11.89;96.72
49611;BME280;35515;48.766;9.176;2022-10-31T04:55:57;98773.31;;;11.77;97.41
49611;BME280;35515;48.766;9.176;2022-10-31T04:58:26;98768.28;;;11.74;97.49
49611;BME280;35515;48.766;9.176;2022-10-31T05:00:52;98765.56;;;11.74;96.36
49611;BME280;35515;48.766;9.176;2022-10-31T05:03:19;98759.53;;;11.72;96.36
49611;BME280;35515;48.766;9.176;2022-10-31T05:05:45;98756.38;;;11.75;96.54
49611;BME280;35515;48.766;9.176;2022-10-31T05:08:12;98753.63;;;11.55;97.78
49611;BME280;35515;48.766;9.176;2022-10-31T05:10:38;98762.66;;;11.62;97.01
49611;BME280;35515;48.766;9.176;2022-10-31T05:13:05;98753.22;;;11.65;96.80
49611;BME280;35515;48.766;9.176;2022-10-31T05:15:33;98758.06;;;11.69;96.13
49611;BME280;35515;48.766;9.176;2022-10-31T05:18:00;98756.38;;;11.62;96.73
49611;BME280;35515;48.766;9.176;2022-10-31T05:20:29;98752.84;;;11.68;97.15
49611;BME280;35515;48.766;9.176;2022-10-31T05:22:57;98755.75;;;11.60;97.41
49611;BME280;35515;48.766;9.176;2022-10-31T05:25:25;98752.81;;;11.54;98.44
49611;BME280;35515;48.766;9.176;2022-10-31T05:27:53;98756.56;;;11.53;98.21
49611;BME280;35515;48.766;9.176;2022-10-31T05:30:21;98750.50;;;11.51;98.57
49611;BME280;35515;48.766;9.176;2022-10-31T05:32:50;98754.66;;;11.47;98.75
49611;BME280;35515;48.766;9.176;2022-10-31T05:35:22;98758.47;;;11.60;98.01
49611;BME280;35515;48.766;9.176;2022-10-31T05:37:49;98747.38;;;11.54;98.70
49611;BME280;35515;48.766;9.176;2022-10-31T05:40:17;98747.59;;;11.46;98.86
49611;BME280;35515;48.766;9.176;2022-10-31T05:42:44;98744.88;;;11.46;98.83
49611;BME280;35515;48.766;9.176;2022-10-31T05:45:13;98747.63;;;11.60;98.31
49611;BME280;35515;48.766;9.176;2022-10-31T05:47:40;98745.50;;;11.62;97.69
49611;BME280;35515;48.766;9.176;2022-10-31T05:50:09;98734.44;;;11.70;97.32
49611;BME280;35515;48.766;9.176;2022-10-31T05:52:36;98740.72;;;11.64;98.08
49611;BME280;35515;48.766;9.176;2022-10-31T05:55:02;98742.41;;;11.71;97.77
49611;BME280;35515;48.766;9.176;2022-10-31T05:57:33;98742.59;;;11.83;97.50
49611;BME280;35515;48.766;9.176;2022-10-31T05:59:59;98749.28;;;11.67;98.18
49611;BME280;35515;48.766;9.176;2022-10-31T06:02:26;98744.50;;;11.90;96.87
49611;BME280;35515;48.766;9.176;2022-10-31T06:04:56;98742.66;;;11.97;96.47
49611;BME280;35515;48.766;9.176;2022-10-31T06:07:24;98739.72;;;11.92;96.97
49611;BME280;35515;48.766;9.176;2022-10-31T06:09:51;98736.16;;;11.91;96.80
49611;BME280;35515;48.766;9.176;2022-10-31T06:12:17;98735.72;;;11.74;98.26
49611;BME280;35515;48.766;9.176;2022-10-31T06:14:44;98736.56;;;11.68;99.32
49611;BME280;35515;48.766;9.176;2022-10-31T06:17:10;98735.53;;;11.69;99.10
49611;BME280;35515;48.766;9.176;2022-10-31T06:19:37;98733.63;;;11.69;98.64
49611;BME280;35515;48.766;9.176;2022-10-31T06:22:03;98731.50;;;11.65;99.53
49611;BME280;35515;48.766;9.176;2022-10-31T06:24:31;98736.34;;;11.63;99.83
49611;BME280;35515;48.766;9.176;2022-10-31T06:26:58;98734.22;;;11.65;99.83
49611;BME280;35515;48.766;9.176;2022-10-31T06:29:24;98725.47;;;11.63;99.41
49611;BME280;35515;48.766;9.176;2022-10-31T06:31:51;98730.25;;;11.61;99.47
49611;BME280;35515;48.766;9.176;2022-10-31T06:34:17;98744.94;;;11.86;97.45
49611;BME280;35515;48.766;9.176;2022-10-31T06:36:45;98743.66;;;11.76;97.83
49611;BME280;35515;48.766;9.176;2022-10-31T06:39:12;98739.47;;;11.60;98.69
49611;BME280;35515;48.766;9.176;2022-10-31T06:41:40;98741.75;;;11.56;99.49
49611;BME280;35515;48.766;9.176;2022-10-31T06:44:07;98746.53;;;11.61;98.59
49611;BME280;35515;48.766;9.176;2022-10-31T06:46:33;98741.13;;;11.61;98.32
49611;BME280;35515;48.766;9.176;2022-10-31T06:49:00;98744.66;;;11.54;99.03
49611;BME280;35515;48.766;9.176;2022-10-31T06:51:26;98749.47;;;11.66;97.84
49611;BME280;35515;48.766;9.176;2022-10-31T06:53:54;98746.97;;;11.64;98.08
49611;BME280;35515;48.766;9.176;2022-10-31T06:56:21;98745.72;;;11.67;97.92
49611;BME280;35515;48.766;9.176;2022-10-31T06:58:49;98746.16;;;11.77;97.85
49611;BME280;35515;48.766;9.176;2022-10-31T07:01:15;98747.41;;;11.75;98.17
49611;BME280;35515;48.766;9.176;2022-10-31T07:03:42;98745.97;;;11.85;97.78
49611;BME280;35515;48.766;9.176;2022-10-31T07:06:08;98745.38;;;11.97;96.93
49611;BME280;35515;48.766;9.176;2022-10-31T07:08:35;98743.69;;;11.82;97.97
49611;BME280;35515;48.766;9.176;2022-10-31T07:11:01;98748.69;;;11.79;98.56
49611;BME280;35515;48.766;9.176;2022-10-31T07:13:28;98744.06;;;11.93;98.19
49611;BME280;35515;48.766;9.176;2022-10-31T07:16:00;98747.47;;;11.95;97.71
49611;BME280;35515;48.766;9.176;2022-10-31T07:18:26;98745.31;;;11.83;98.96
49611;BME280;35515;48.766;9.176;2022-10-31T07:20:53;98748.88;;;11.77;99.54
49611;BME280;35515;48.766;9.176;2022-10-31T07:23:20;98750.34;;;11.80;99.84
49611;BME280;35515;48.766;9.176;2022-10-31T07:25:47;98759.97;;;11.82;99.98
49611;BME280;35515;48.766;9.176;2022-10-31T07:28:14;98759.97;;;11.82;100.00
49611;BME280;35515;48.766;9.176;2022-10-31T07:30:41;98755.78;;;11.80;100.00
49611;BME280;35515;48.766;9.176;2022-10-31T07:33:09;98756.19;;;11.83;100.00
49611;BME280;35515;48.766;9.176;2022-10-31T07:35:35;98763.97;;;12.00;99.15
49611;BME280;35515;48.766;9.176;2022-10-31T07:38:09;98758.56;;;12.07;97.90
49611;BME280;35515;48.766;9.176;2022-10-31T07:40:36;98751.66;;;12.04;97.78
49611;BME280;35515;48.766;9.176;2022-10-31T07:43:02;98750.19;;;12.01;97.43
49611;BME280;35515;48.766;9.176;2022-10-31T07:45:29;98749.97;;;12.03;96.83
49611;BME280;35515;48.766;9.176;2022-10-31T07:47:56;98750.34;;;11.86;97.44
49611;BME280;35515;48.766;9.176;2022-10-31T07:50:26;98749.94;;;11.90;97.69
49611;BME280;35515;48.766;9.176;2022-10-31T07:52:59;98750.41;;;12.00;97.45
49611;BME280;35515;48.766;9.176;2022-10-31T07:55:27;98748.69;;;11.92;97.59
49611;BME280;35515;48.766;9.176;2022-10-31T07:57:58;98744.72;;;11.88;98.43
49611;BME280;35515;48.766;9.176;2022-10-31T08:00:24;98752.25;;;11.99;98.20
49611;BME280;35515;48.766;9.176;2022-10-31T08:02:56;98747.47;;;12.01;98.46
49611;BME280;35515;48.766;9.176;2022-10-31T08:05:24;98751.88;;;12.02;98.93
49611;BME280;35515;48.766;9.176;2022-10-31T08:07:51;98749.38;;;12.08;98.22
49611;BME280;35515;48.766;9.176;2022-10-31T08:10:18;98745.78;;;12.14;98.36
49611;BME280;35515;48.766;9.176;2022-10-31T08:12:44;98742.47;;;12.12;98.73
49611;BME280;35515;48.766;9.176;2022-10-31T08:15:11;98744.31;;;12.11;99.14
49611;BME280;35515;48.766;9.176;2022-10-31T08:17:37;98744.31;;;12.25;98.59
49611;BME280;35515;48.766;9.176;2022-10-31T08:20:08;98749.16;;;12.29;98.37
49611;BME280;35515;48.766;9.176;2022-10-31T08:22:36;98749.56;;;12.33;98.16
49611;BME280;35515;48.766;9.176;2022-10-31T08:25:02;98758.13;;;12.30;98.49
49611;BME280;35515;48.766;9.176;2022-10-31T08:27:29;98757.06;;;12.37;98.20
49611;BME280;35515;48.766;9.176;2022-10-31T08:29:56;98743.91;;;12.48;97.37
49611;BME280;35515;48.766;9.176;2022-10-31T08:32:23;98747.44;;;12.55;96.56
49611;BME280;35515;48.766;9.176;2022-10-31T08:34:50;98741.13;;;12.68;95.90
49611;BME280;35515;48.766;9.176;2022-10-31T08:37:16;98736.53;;;12.62;96.67
49611;BME280;35515;48.766;9.176;2022-10-31T08:39:46;98739.91;;;12.57;97.24
49611;BME280;35515;48.766;9.176;2022-10-31T08:42:12;98733.59;;;12.63;96.46
49611;BME280;35515;48.766;9.176;2022-10-31T08:44:41;98732.78;;;12.63;96.86
49611;BME280;35515;48.766;9.176;2022-10-31T08:47:07;98728.78;;;12.72;96.15
49611;BME280;35515;48.766;9.176;2022-10-31T08:49:34;98726.91;;;12.73;96.30
49611;BME280;35515;48.766;9.176;2022-10-31T08:52:00;98716.47;;;12.69;96.71
49611;BME280;35515;48.766;9.176;2022-10-31T08:54:27;98722.69;;;12.77;96.55
49611;BME280;35515;48.766;9.176;2022-10-31T08:56:55;98723.13;;;12.80;96.64
49611;BME280;35515;48.766;9.176;2022-10-31T08:59:22;98719.94;;;12.90;95.98
49611;BME280;35515;48.766;9.176;2022-10-31T09:01:48;98723.50;;;12.91;95.96
49611;BME280;35515;48.766;9.176;2022-10-31T09:04:15;98712.81;;;12.96;95.42
49611;BME280;35515;48.766;9.176;2022-10-31T09:06:41;98714.91;;;12.94;96.23
49611;BME280;35515;48.766;9.176;2022-10-31T09:09:08;98714.91;;;12.94;96.35
49611;BME280;35515;48.766;9.176;2022-10-31T09:11:34;98715.91;;;12.99;95.54
49611;BME280;35515;48.766;9.176;2022-10-31T09:14:02;98726.41;;;12.96;96.29
49611;BME280;35515;48.766;9.176;2022-10-31T09:16:28;98714.25;;;13.05;96.01
49611;BME280;35515;48.766;9.176;2022-10-31T09:18:55;98718.56;;;13.13;95.57
49611;BME280;35515;48.766;9.176;2022-10-31T09:21:22;98707.88;;;13.18;95.20
49611;BME280;35515;48.766;9.176;2022-10-31T09:23:48;98709.38;;;13.14;95.25
49611;BME280;35515;48.766;9.176;2022-10-31T09:26:15;98713.75;;;13.21;94.79
49611;BME280;35515;48.766;9.176;2022-10-31T09:28:41;98702.81;;;13.28;93.97
49611;BME280;35515;48.766;9.176;2022-10-31T09:31:11;98701.78;;;13.29;94.50
49611;BME280;35515;48.766;9.176;2022-10-31T09:33:37;98707.84;;;13.25;94.13
49611;BME280;35515;48.766;9.176;2022-10-31T09:36:04;98707.00;;;13.31;94.37
49611;BME280;35515;48.766;9.176;2022-10-31T09:38:49;98704.03;;;13.39;93.67
49611;BME280;35515;48.766;9.176;2022-10-31T09:41:20;98703.97;;;13.52;93.54
49611;BME280;35515;48.766;9.176;2022-10-31T09:43:57;98696.41;;;13.54;93.43
49611;BME280;35515;48.766;9.176;2022-10-31T09:46:34;98698.50;;;13.52;93.65
49611;BME280;35515;48.766;9.176;2022-10-31T09:49:29;98693.53;;;13.49;93.79
49611;BME280;35515;48.766;9.176;2022-10-31T09:52:01;98697.28;;;13.48;93.90
49611;BME280;35515;48.766;9.176;2022-10-31T09:54:32;98693.69;;;13.54;93.36
49611;BME280;35515;48.766;9.176;2022-10-31T09:57:01;98693.53;;;13.49;93.79
49611;BME280;35515;48.766;9.176;2022-10-31T09:59:32;98697.47;;;13.53;93.46
49611;BME280;35515;48.766;9.176;2022-10-31T10:02:02;98700.38;;;13.59;93.41
49611;BME280;35515;48.766;9.176;2022-10-31T10:04:36;98695.53;;;13.61;93.96
49611;BME280;35515;48.766;9.176;2022-10-31T10:07:11;98684.22;;;13.64;93.41
49611;BME280;35515;48.766;9.176;2022-10-31T10:09:40;98690.88;;;13.68;92.94
49611;BME280;35515;48.766;9.176;2022-10-31T10:12:12;98691.59;;;13.82;92.17
49611;BME280;35515;48.766;9.176;2022-10-31T10:14:52;98691.59;;;13.82;92.37
49611;BME280;35515;48.766;9.176;2022-10-31T10:17:27;98686.16;;;13.82;92.62
49611;BME280;35515;48.766;9.176;2022-10-31T10:23:01;98682.38;;;13.83;92.70
49611;BME280;35515;48.766;9.176;2022-10-31T10:25:34;98687.72;;;13.96;91.81
49611;BME280;35515;48.766;9.176;2022-10-31T10:28:13;98678.97;;;13.94;91.82
49611;BME280;35515;48.766;9.176;2022-10-31T10:30:43;98680.78;;;14.00;91.81
49611;BME280;35515;48.766;9.176;2022-10-31T10:33:15;98673.97;;;14.10;91.15
49611;BME280;35515;48.766;9.176;2022-10-31T10:35:47;98675.66;;;14.11;91.19
49611;BME280;35515;48.766;9.176;2022-10-31T10:38:20;98680.41;;;14.15;90.95
49611;BME280;35515;48.766;9.176;2022-10-31T10:40:51;98670.59;;;14.14;90.86
49611;BME280;35515;48.766;9.176;2022-10-31T10:43:22;98670.91;;;14.25;90.36
49611;BME280;35515;48.766;9.176;2022-10-31T10:45:53;98666.06;;;14.27;90.30
49611;BME280;35515;48.766;9.176;2022-10-31T10:48:45;98663.28;;;14.33;90.19
49611;BME280;35515;48.766;9.176;2022-10-31T10:51:27;98662.59;;;14.38;89.78
49611;BME280;35515;48.766;9.176;2022-10-31T10:54:10;98659.28;;;14.36;90.07
49611;BME280;35515;48.766;9.176;2022-10-31T10:56:46;98657.91;;;14.45;89.40
49611;BME280;35515;48.766;9.176;2022-10-31T10:59:19;98648.97;;;14.38;89.82
49611;BME280;35515;48.766;9.176;2022-10-31T11:01:48;98649.13;;;14.43;90.17
49611;BME280;35515;48.766;9.176;2022-10-31T11:04:31;98641.94;;;14.49;88.79
49611;BME280;35515;48.766;9.176;2022-10-31T11:06:59;98643.16;;;14.53;89.02
49611;BME280;35515;48.766;9.176;2022-10-31T11:09:26;98635.50;;;14.62;88.05
49611;BME280;35515;48.766;9.176;2022-10-31T11:11:53;98634.66;;;14.61;87.99
49611;BME280;35515;48.766;9.176;2022-10-31T11:14:21;98629.69;;;14.58;88.45
49611;BME280;35515;48.766;9.176;2022-10-31T11:16:50;98628.53;;;14.66;88.60
49611;BME280;35515;48.766;9.176;2022-10-31T11:19:20;98625.97;;;14.71;88.27
49611;BME280;35515;48.766;9.176;2022-10-31T11:21:49;98623.72;;;14.68;88.70
49611;BME280;35515;48.766;9.176;2022-10-31T11:24:17;98612.56;;;14.69;88.67
49611;BME280;35515;48.766;9.176;2022-10-31T11:26:45;98610.53;;;14.65;89.19
49611;BME280;35515;48.766;9.176;2022-10-31T11:29:15;98606.66;;;14.73;88.89
49611;BME280;35515;48.766;9.176;2022-10-31T11:31:43;98605.50;;;14.80;88.56
49611;BME280;35515;48.766;9.176;2022-10-31T11:34:23;98598.09;;;14.87;88.13
49611;BME280;35515;48.766;9.176;2022-10-31T11:36:54;98595.63;;;14.98;87.49
49611;BME280;35515;48.766;9.176;2022-10-31T11:39:24;98592.53;;;14.94;87.85
49611;BME280;35515;48.766;9.176;2022-10-31T11:41:52;98584.59;;;15.04;87.38
49611;BME280;35515;48.766;9.176;2022-10-31T11:44:23;98581.06;;;15.04;87.48
49611;BME280;35515;48.766;9.176;2022-10-31T11:46:52;98587.94;;;15.07;87.68
49611;BME280;35515;48.766;9.176;2022-10-31T11:49:29;98585.25;;;15.18;88.76
49611;BME280;35515;48.766;9.176;2022-10-31T11:51:59;98582.47;;;15.37;87.30
49611;BME280;35515;48.766;9.176;2022-10-31T11:54:28;98574.28;;;15.37;87.36
49611;BME280;35515;48.766;9.176;2022-10-31T11:56:55;98576.63;;;15.33;86.86
49611;BME280;35515;48.766;9.176;2022-10-31T11:59:25;98578.75;;;15.31;86.90
49611;BME280;35515;48.766;9.176;2022-10-31T12:01:54;98575.28;;;15.24;87.64
49611;BME280;35515;48.766;9.176;2022-10-31T12:04:32;98564.88;;;15.33;87.41
49611;BME280;35515;48.766;9.176;2022-10-31T12:07:02;98558.72;;;15.37;86.76
49611;BME280;35515;48.766;9.176;2022-10-31T12:09:30;98549.22;;;15.40;86.57
49611;BME280;35515;48.766;9.176;2022-10-31T12:12:13;98556.94;;;15.43;86.42
49611;BME280;35515;48.766;9.176;2022-10-31T12:14:54;98551.38;;;15.74;89.08
49611;BME280;35515;48.766;9.176;2022-10-31T12:17:24;98544.38;;;15.78;88.33
49611;BME280;35515;48.766;9.176;2022-10-31T12:20:00;98541.19;;;15.93;85.33
49611;BME280;35515;48.766;9.176;2022-10-31T12:22:37;98539.31;;;15.81;85.47
49611;BME280;35515;48.766;9.176;2022-10-31T12:25:17;98528.72;;;15.73;86.44
49611;BME280;35515;48.766;9.176;2022-10-31T12:28:01;98524.66;;;15.76;85.81
49611;BME280;35515;48.766;9.176;2022-10-31T12:30:40;98524.06;;;15.74;86.43
49611;BME280;35515;48.766;9.176;2022-10-31T12:33:26;98525.38;;;15.71;86.18
49611;BME280;35515;48.766;9.176;2022-10-31T12:36:10;98515.75;;;15.68;86.04
49611;BME280;35515;48.766;9.176;2022-10-31T12:38:46;98507.56;;;15.68;86.00
49611;BME280;35515;48.766;9.176;2022-10-31T12:41:28;98505.06;;;15.67;85.96
49611;BME280;35515;48.766;9.176;2022-10-31T12:44:05;98501.84;;;15.70;86.44
49611;BME280;35515;48.766;9.176;2022-10-31T12:46:48;98508.75;;;15.72;86.43
49611;BME280;35515;48.766;9.176;2022-10-31T12:49:42;98506.25;;;15.71;86.51
49611;BME280;35515;48.766;9.176;2022-10-31T12:52:23;98495.44;;;15.76;86.25
49611;BME280;35515;48.766;9.176;2022-10-31T12:55:06;98489.75;;;15.78;86.50
49611;BME280;35515;48.766;9.176;2022-10-31T12:57:41;98486.06;;;15.72;86.82
49611;BME280;35515;48.766;9.176;2022-10-31T13:00:12;98478.47;;;15.74;87.24
49611;BME280;35515;48.766;9.176;2022-10-31T13:02:44;98467.06;;;15.77;87.13
49611;BME280;35515;48.766;9.176;2022-10-31T13:05:19;98468.28;;;15.81;87.04
49611;BME280;35515;48.766;9.176;2022-10-31T13:07:54;98463.19;;;15.85;86.69
49611;BME280;35515;48.766;9.176;2022-10-31T13:10:27;98471.13;;;15.86;86.76
49611;BME280;35515;48.766;9.176;2022-10-31T13:13:02;98470.28;;;15.86;86.82
49611;BME280;35515;48.766;9.176;2022-10-31T13:15:38;98457.72;;;15.85;86.96
49611;BME280;35515;48.766;9.176;2022-10-31T13:18:17;98459.03;;;15.82;87.39
49611;BME280;35515;48.766;9.176;2022-10-31T13:20:46;98445.94;;;15.84;87.12
49611;BME280;35515;48.766;9.176;2022-10-31T13:23:19;98435.72;;;15.92;86.75